sensor_id;sensor_type;location;lat;lon;timestamp;pressure;altitude;pressure_sealevel;temperature;humidity
40788;BME280;26497;52.494;7.546;2023-04-19T00:00:04;102247.16;;;15.19;50.67
40788;BME280;26497;52.494;7.546;2023-04-19T00:02:33;102237.38;;;15.16;50.74
40788;BME280;26497;52.494;7.546;2023-04-19T00:05:00;102225.00;;;15.20;50.39
40788;BME280;26497;52.494;7.546;2023-04-19T00:07:28;102232.03;;;15.10;50.36
40788;BME280;26497;52.494;7.546;2023-04-19T00:09:55;102234.69;;;15.09;50.34
40788;BME280;26497;52.494;7.546;2023-04-19T00:12:22;102237.34;;;15.13;50.02
40788;BME280;26497;52.494;7.546;2023-04-19T00:14:49;102235.59;;;15.11;49.86
40788;BME280;26497;52.494;7.546;2023-04-19T00:17:16;102224.06;;;15.13;49.39
40788;BME280;26497;52.494;7.546;2023-04-19T00:19:44;102232.03;;;15.13;49.43
40788;BME280;26497;52.494;7.546;2023-04-19T00:22:11;102224.09;;;15.15;49.38
40788;BME280;26497;52.494;7.546;2023-04-19T00:24:39;102224.06;;;15.09;49.07
40788;BME280;26497;52.494;7.546;2023-04-19T00:27:06;102222.31;;;15.18;49.22
40788;BME280;26497;52.494;7.546;2023-04-19T00:29:33;102221.44;;;15.19;49.11
40788;BME280;26497;52.494;7.546;2023-04-19T00:32:00;102214.28;;;15.03;49.25
40788;BME280;26497;52.494;7.546;2023-04-19T00:34:30;102217.81;;;15.02;49.30
40788;BME280;26497;52.494;7.546;2023-04-19T00:36:57;102218.72;;;15.02;49.16
40788;BME280;26497;52.494;7.546;2023-04-19T00:39:24;102219.50;;;14.86;49.11
40788;BME280;26497;52.494;7.546;2023-04-19T00:41:53;102209.81;;;14.97;48.87
40788;BME280;26497;52.494;7.546;2023-04-19T00:44:22;102209.81;;;14.97;48.30
40788;BME280;26497;52.494;7.546;2023-04-19T00:46:49;102213.25;;;14.81;48.84
40788;BME280;26497;52.494;7.546;2023-04-19T00:49:17;102213.25;;;14.82;48.92
40788;BME280;26497;52.494;7.546;2023-04-19T00:51:44;102207.97;;;14.84;48.69
40788;BME280;26497;52.494;7.546;2023-04-19T00:54:12;102207.81;;;14.67;48.94
40788;BME280;26497;52.494;7.546;2023-04-19T00:56:40;102203.44;;;14.70;48.74
40788;BME280;26497;52.494;7.546;2023-04-19T00:59:08;102206.09;;;14.70;48.81
40788;BME280;26497;52.494;7.546;2023-04-19T01:01:37;102199.03;;;14.69;48.55
40788;BME280;26497;52.494;7.546;2023-04-19T01:04:05;102219.41;;;14.75;48.63
40788;BME280;26497;52.494;7.546;2023-04-19T01:06:33;102217.53;;;14.63;48.72
40788;BME280;26497;52.494;7.546;2023-04-19T01:09:00;102220.97;;;14.53;48.60
40788;BME280;26497;52.494;7.546;2023-04-19T01:11:27;102222.75;;;14.49;48.80
40788;BME280;26497;52.494;7.546;2023-04-19T01:13:55;102221.81;;;14.45;48.76
40788;BME280;26497;52.494;7.546;2023-04-19T01:16:25;102224.56;;;14.58;48.58
40788;BME280;26497;52.494;7.546;2023-04-19T01:18:52;102221.00;;;14.56;48.53
40788;BME280;26497;52.494;7.546;2023-04-19T01:21:19;102228.88;;;14.42;48.58
40788;BME280;26497;52.494;7.546;2023-04-19T01:23:49;102214.78;;;14.51;48.29
40788;BME280;26497;52.494;7.546;2023-04-19T01:26:17;102220.00;;;14.41;48.35
40788;BME280;26497;52.494;7.546;2023-04-19T01:28:44;102222.59;;;14.34;48.47
40788;BME280;26497;52.494;7.546;2023-04-19T01:31:11;102217.28;;;14.34;48.48
40788;BME280;26497;52.494;7.546;2023-04-19T01:33:38;102222.56;;;14.27;48.55
40788;BME280;26497;52.494;7.546;2023-04-19T01:36:06;102226.09;;;14.31;48.16
40788;BME280;26497;52.494;7.546;2023-04-19T01:38:34;102227.78;;;14.18;47.57
40788;BME280;26497;52.494;7.546;2023-04-19T01:41:02;102226.94;;;14.27;47.58
40788;BME280;26497;52.494;7.546;2023-04-19T01:43:29;102226.06;;;14.23;47.30
40788;BME280;26497;52.494;7.546;2023-04-19T01:45:56;102228.81;;;14.36;47.16
40788;BME280;26497;52.494;7.546;2023-04-19T01:48:23;102224.38;;;14.35;46.96
40788;BME280;26497;52.494;7.546;2023-04-19T01:50:50;102233.09;;;14.23;46.62
40788;BME280;26497;52.494;7.546;2023-04-19T01:53:17;102226.94;;;14.27;46.60
40788;BME280;26497;52.494;7.546;2023-04-19T01:55:44;102230.50;;;14.29;45.89
40788;BME280;26497;52.494;7.546;2023-04-19T01:58:13;102226.19;;;14.40;45.69
40788;BME280;26497;52.494;7.546;2023-04-19T02:00:39;102231.47;;;14.37;45.34
40788;BME280;26497;52.494;7.546;2023-04-19T02:03:06;102228.00;;;14.43;44.59
40788;BME280;26497;52.494;7.546;2023-04-19T02:05:33;102234.19;;;14.43;44.35
40788;BME280;26497;52.494;7.546;2023-04-19T02:08:01;102220.06;;;14.48;43.86
40788;BME280;26497;52.494;7.546;2023-04-19T02:10:28;102234.31;;;14.57;43.56
40788;BME280;26497;52.494;7.546;2023-04-19T02:12:55;102225.44;;;14.57;43.79
40788;BME280;26497;52.494;7.546;2023-04-19T02:15:23;102223.63;;;14.53;43.38
40788;BME280;26497;52.494;7.546;2023-04-19T02:17:50;102232.38;;;14.39;42.14
40788;BME280;26497;52.494;7.546;2023-04-19T02:20:17;102230.69;;;14.49;41.99
40788;BME280;26497;52.494;7.546;2023-04-19T02:22:44;102229.81;;;14.49;41.67
40788;BME280;26497;52.494;7.546;2023-04-19T02:25:12;102230.66;;;14.44;41.68
40788;BME280;26497;52.494;7.546;2023-04-19T02:27:40;102230.66;;;14.43;41.71
40788;BME280;26497;52.494;7.546;2023-04-19T02:30:08;102228.88;;;14.43;41.29
40788;BME280;26497;52.494;7.546;2023-04-19T02:32:37;102227.03;;;14.36;40.26
40788;BME280;26497;52.494;7.546;2023-04-19T02:35:04;102227.09;;;14.42;39.87
40788;BME280;26497;52.494;7.546;2023-04-19T02:37:31;102221.72;;;14.35;39.51
40788;BME280;26497;52.494;7.546;2023-04-19T02:39:58;102231.47;;;14.37;39.23
40788;BME280;26497;52.494;7.546;2023-04-19T02:42:25;102231.50;;;14.40;39.19
40788;BME280;26497;52.494;7.546;2023-04-19T02:44:53;102233.03;;;14.15;39.26
40788;BME280;26497;52.494;7.546;2023-04-19T02:47:20;102239.28;;;14.22;39.92
40788;BME280;26497;52.494;7.546;2023-04-19T02:49:48;102239.97;;;14.02;40.45
40788;BME280;26497;52.494;7.546;2023-04-19T02:52:15;102243.28;;;13.79;40.69
40788;BME280;26497;52.494;7.546;2023-04-19T02:54:42;102247.63;;;13.71;40.69
40788;BME280;26497;52.494;7.546;2023-04-19T02:57:09;102247.47;;;13.59;41.12
40788;BME280;26497;52.494;7.546;2023-04-19T02:59:36;102245.31;;;13.33;41.50
40788;BME280;26497;52.494;7.546;2023-04-19T03:02:03;102239.63;;;13.03;41.28
40788;BME280;26497;52.494;7.546;2023-04-19T03:04:30;102250.00;;;12.89;41.68
40788;BME280;26497;52.494;7.546;2023-04-19T03:06:58;102244.69;;;12.89;41.68
40788;BME280;26497;52.494;7.546;2023-04-19T03:09:25;102246.09;;;12.64;41.96
40788;BME280;26497;52.494;7.546;2023-04-19T03:11:52;102244.94;;;12.48;42.15
40788;BME280;26497;52.494;7.546;2023-04-19T03:14:19;102254.28;;;12.27;42.40
40788;BME280;26497;52.494;7.546;2023-04-19T03:16:46;102241.69;;;12.14;42.72
40788;BME280;26497;52.494;7.546;2023-04-19T03:19:13;102244.81;;;11.94;42.17
40788;BME280;26497;52.494;7.546;2023-04-19T03:21:40;102251.69;;;11.84;42.31
40788;BME280;26497;52.494;7.546;2023-04-19T03:24:19;102247.09;;;11.74;41.82
40788;BME280;26497;52.494;7.546;2023-04-19T03:26:46;102246.78;;;11.58;42.09
40788;BME280;26497;52.494;7.546;2023-04-19T03:29:13;102250.97;;;11.48;41.43
40788;BME280;26497;52.494;7.546;2023-04-19T03:31:40;102250.59;;;11.31;40.40
40788;BME280;26497;52.494;7.546;2023-04-19T03:34:07;102255.69;;;11.22;40.98
40788;BME280;26497;52.494;7.546;2023-04-19T03:36:34;102260.81;;;11.14;40.64
40788;BME280;26497;52.494;7.546;2023-04-19T03:39:02;102259.19;;;11.21;40.77
40788;BME280;26497;52.494;7.546;2023-04-19T03:41:30;102262.81;;;11.26;40.79
40788;BME280;26497;52.494;7.546;2023-04-19T03:43:57;102255.59;;;11.17;40.78
40788;BME280;26497;52.494;7.546;2023-04-19T03:46:24;102265.19;;;11.14;40.81
40788;BME280;26497;52.494;7.546;2023-04-19T03:48:51;102268.50;;;11.05;40.44
40788;BME280;26497;52.494;7.546;2023-04-19T03:51:18;102266.81;;;11.07;40.66
40788;BME280;26497;52.494;7.546;2023-04-19T03:53:45;102265.81;;;11.03;40.46
40788;BME280;26497;52.494;7.546;2023-04-19T03:56:12;102270.25;;;11.04;40.58
40788;BME280;26497;52.494;7.546;2023-04-19T03:58:40;102269.44;;;11.07;40.77
40788;BME280;26497;52.494;7.546;2023-04-19T04:01:07;102259.63;;;11.01;40.33
40788;BME280;26497;52.494;7.546;2023-04-19T04:03:42;102268.50;;;11.05;40.53
40788;BME280;26497;52.494;7.546;2023-04-19T04:06:09;102267.47;;;10.98;40.70
40788;BME280;26497;52.494;7.546;2023-04-19T04:08:36;102274.13;;;10.82;41.08
40788;BME280;26497;52.494;7.546;2023-04-19T04:11:04;102278.94;;;10.64;41.50
40788;BME280;26497;52.494;7.546;2023-04-19T04:13:31;102281.19;;;10.48;42.30
40788;BME280;26497;52.494;7.546;2023-04-19T04:15:59;102280.91;;;10.39;42.27
40788;BME280;26497;52.494;7.546;2023-04-19T04:18:26;102288.66;;;10.31;42.79
40788;BME280;26497;52.494;7.546;2023-04-19T04:20:53;102281.59;;;10.31;42.46
40788;BME280;26497;52.494;7.546;2023-04-19T04:23:20;102282.22;;;10.21;42.92
40788;BME280;26497;52.494;7.546;2023-04-19T04:25:56;102282.88;;;10.12;43.21
40788;BME280;26497;52.494;7.546;2023-04-19T04:28:25;102291.63;;;10.11;43.24
40788;BME280;26497;52.494;7.546;2023-04-19T04:30:52;102292.41;;;10.09;43.08
40788;BME280;26497;52.494;7.546;2023-04-19T04:33:23;102295.63;;;9.97;43.40
40788;BME280;26497;52.494;7.546;2023-04-19T04:35:51;102288.69;;;10.00;43.40
40788;BME280;26497;52.494;7.546;2023-04-19T04:38:18;102294.94;;;10.04;43.36
40788;BME280;26497;52.494;7.546;2023-04-19T04:40:49;102290.34;;;9.97;43.46
40788;BME280;26497;52.494;7.546;2023-04-19T04:43:18;102300.63;;;9.87;43.27
40788;BME280;26497;52.494;7.546;2023-04-19T04:45:47;102296.63;;;10.02;43.09
40788;BME280;26497;52.494;7.546;2023-04-19T04:48:14;102296.63;;;10.02;43.44
40788;BME280;26497;52.494;7.546;2023-04-19T04:50:42;102301.84;;;10.00;43.46
40788;BME280;26497;52.494;7.546;2023-04-19T04:53:09;102294.78;;;9.99;43.72
40788;BME280;26497;52.494;7.546;2023-04-19T04:55:37;102294.94;;;10.04;43.37
40788;BME280;26497;52.494;7.546;2023-04-19T04:58:04;102292.50;;;10.12;43.51
40788;BME280;26497;52.494;7.546;2023-04-19T05:00:31;102295.47;;;10.24;43.44
40788;BME280;26497;52.494;7.546;2023-04-19T05:02:59;102297.44;;;10.31;43.13
40788;BME280;26497;52.494;7.546;2023-04-19T05:05:26;102290.09;;;10.52;42.76
40788;BME280;26497;52.494;7.546;2023-04-19T05:07:55;102291.44;;;10.71;42.79
40788;BME280;26497;52.494;7.546;2023-04-19T05:10:22;102294.72;;;10.97;41.73
40788;BME280;26497;52.494;7.546;2023-04-19T05:12:49;102300.13;;;11.03;41.70
40788;BME280;26497;52.494;7.546;2023-04-19T05:15:15;102293.84;;;10.98;42.22
40788;BME280;26497;52.494;7.546;2023-04-19T05:17:43;102299.03;;;10.94;42.06
40788;BME280;26497;52.494;7.546;2023-04-19T05:20:10;102294.94;;;10.70;41.77
40788;BME280;26497;52.494;7.546;2023-04-19T05:22:37;102293.31;;;10.76;42.22
40788;BME280;26497;52.494;7.546;2023-04-19T05:25:09;102304.09;;;10.84;42.50
40788;BME280;26497;52.494;7.546;2023-04-19T05:27:36;102302.47;;;10.89;42.03
40788;BME280;26497;52.494;7.546;2023-04-19T05:30:04;102287.78;;;11.02;41.88
40788;BME280;26497;52.494;7.546;2023-04-19T05:32:31;102298.50;;;11.09;41.96
40788;BME280;26497;52.494;7.546;2023-04-19T05:34:59;102298.84;;;11.23;41.76
40788;BME280;26497;52.494;7.546;2023-04-19T05:37:26;102290.09;;;11.27;41.61
40788;BME280;26497;52.494;7.546;2023-04-19T05:39:53;102291.94;;;11.29;41.54
40788;BME280;26497;52.494;7.546;2023-04-19T05:42:21;102285.03;;;11.36;41.62
40788;BME280;26497;52.494;7.546;2023-04-19T05:44:48;102288.72;;;11.44;41.39
40788;BME280;26497;52.494;7.546;2023-04-19T05:47:15;102287.00;;;11.45;41.53
40788;BME280;26497;52.494;7.546;2023-04-19T05:49:42;102294.34;;;11.60;41.40
40788;BME280;26497;52.494;7.546;2023-04-19T05:52:09;102284.81;;;11.67;41.29
40788;BME280;26497;52.494;7.546;2023-04-19T05:54:36;102285.09;;;11.80;41.11
40788;BME280;26497;52.494;7.546;2023-04-19T05:57:03;102281.78;;;11.91;40.87
40788;BME280;26497;52.494;7.546;2023-04-19T05:59:32;102279.59;;;12.14;40.49
40788;BME280;26497;52.494;7.546;2023-04-19T06:01:58;102280.53;;;12.16;40.73
40788;BME280;26497;52.494;7.546;2023-04-19T06:04:26;102278.16;;;12.32;40.22
40788;BME280;26497;52.494;7.546;2023-04-19T06:06:53;102271.94;;;12.28;40.26
40788;BME280;26497;52.494;7.546;2023-04-19T06:09:19;102276.53;;;12.38;40.13
40788;BME280;26497;52.494;7.546;2023-04-19T06:11:47;102273.31;;;12.55;39.42
40788;BME280;26497;52.494;7.546;2023-04-19T06:14:14;102276.88;;;12.60;39.45
40788;BME280;26497;52.494;7.546;2023-04-19T06:16:42;102281.56;;;12.77;39.47
40788;BME280;26497;52.494;7.546;2023-04-19T06:19:09;102286.41;;;13.03;39.46
40788;BME280;26497;52.494;7.546;2023-04-19T06:21:36;102283.16;;;13.22;38.51
40788;BME280;26497;52.494;7.546;2023-04-19T06:24:05;102283.22;;;13.27;38.25
40788;BME280;26497;52.494;7.546;2023-04-19T06:26:32;102263.84;;;14.02;38.02
40788;BME280;26497;52.494;7.546;2023-04-19T06:28:59;102275.34;;;15.00;36.15
40788;BME280;26497;52.494;7.546;2023-04-19T06:31:26;102267.91;;;16.21;34.08
40788;BME280;26497;52.494;7.546;2023-04-19T06:33:54;102269.63;;;17.34;31.52
40788;BME280;26497;52.494;7.546;2023-04-19T06:36:21;102270.16;;;18.17;30.99
40788;BME280;26497;52.494;7.546;2023-04-19T06:38:48;102269.78;;;18.63;29.69
40788;BME280;26497;52.494;7.546;2023-04-19T06:41:16;102274.16;;;18.74;29.14
40788;BME280;26497;52.494;7.546;2023-04-19T06:43:43;102270.47;;;18.87;28.84
40788;BME280;26497;52.494;7.546;2023-04-19T06:46:10;102260.41;;;19.17;27.74
40788;BME280;26497;52.494;7.546;2023-04-19T06:48:38;102261.19;;;19.25;28.08
40788;BME280;26497;52.494;7.546;2023-04-19T06:51:06;102268.31;;;19.26;28.42
40788;BME280;26497;52.494;7.546;2023-04-19T06:53:34;102259.25;;;19.40;27.80
40788;BME280;26497;52.494;7.546;2023-04-19T06:56:02;102269.88;;;19.44;27.96
40788;BME280;26497;52.494;7.546;2023-04-19T06:58:30;102268.06;;;19.48;27.50
40788;BME280;26497;52.494;7.546;2023-04-19T07:00:58;102261.78;;;19.51;27.44
40788;BME280;26497;52.494;7.546;2023-04-19T07:03:25;102280.50;;;19.52;27.83
40788;BME280;26497;52.494;7.546;2023-04-19T07:05:52;102276.97;;;19.50;27.71
40788;BME280;26497;52.494;7.546;2023-04-19T07:08:22;102273.19;;;19.67;26.93
40788;BME280;26497;52.494;7.546;2023-04-19T07:10:49;102278.53;;;19.67;27.74
40788;BME280;26497;52.494;7.546;2023-04-19T07:13:17;102264.56;;;20.10;26.71
40788;BME280;26497;52.494;7.546;2023-04-19T07:15:44;102274.13;;;20.27;26.14
40788;BME280;26497;52.494;7.546;2023-04-19T07:18:11;102274.47;;;20.61;26.47
40788;BME280;26497;52.494;7.546;2023-04-19T07:20:40;102269.41;;;20.98;25.79
40788;BME280;26497;52.494;7.546;2023-04-19T07:23:09;102264.41;;;21.25;25.59
40788;BME280;26497;52.494;7.546;2023-04-19T07:25:38;102258.53;;;21.92;25.14
40788;BME280;26497;52.494;7.546;2023-04-19T07:28:05;102261.28;;;22.28;24.59
40788;BME280;26497;52.494;7.546;2023-04-19T07:30:32;102260.56;;;22.58;24.19
40788;BME280;26497;52.494;7.546;2023-04-19T07:32:59;102255.69;;;22.37;23.76
40788;BME280;26497;52.494;7.546;2023-04-19T07:35:26;102249.59;;;22.29;24.15
40788;BME280;26497;52.494;7.546;2023-04-19T07:37:53;102266.03;;;22.54;23.93
40788;BME280;26497;52.494;7.546;2023-04-19T07:40:20;102268.53;;;22.62;23.55
40788;BME280;26497;52.494;7.546;2023-04-19T07:42:48;102259.81;;;22.87;23.13
40788;BME280;26497;52.494;7.546;2023-04-19T07:45:15;102257.72;;;22.98;23.95
40788;BME280;26497;52.494;7.546;2023-04-19T07:47:42;102254.69;;;22.78;23.18
40788;BME280;26497;52.494;7.546;2023-04-19T07:50:10;102256.31;;;22.49;23.81
40788;BME280;26497;52.494;7.546;2023-04-19T07:52:37;102260.41;;;22.64;24.10
40788;BME280;26497;52.494;7.546;2023-04-19T07:55:05;102261.91;;;22.39;23.19
40788;BME280;26497;52.494;7.546;2023-04-19T07:57:33;102265.53;;;21.99;24.21
40788;BME280;26497;52.494;7.546;2023-04-19T08:00:03;102255.28;;;22.17;24.24
40788;BME280;26497;52.494;7.546;2023-04-19T08:02:30;102260.00;;;22.07;23.66
40788;BME280;26497;52.494;7.546;2023-04-19T08:04:57;102242.44;;;22.30;24.31
40788;BME280;26497;52.494;7.546;2023-04-19T08:07:24;102248.59;;;22.35;23.04
40788;BME280;26497;52.494;7.546;2023-04-19T08:09:51;102245.78;;;22.39;23.06
40788;BME280;26497;52.494;7.546;2023-04-19T08:12:18;102251.69;;;22.90;22.59
40788;BME280;26497;52.494;7.546;2023-04-19T08:14:45;102256.94;;;23.28;22.30
40788;BME280;26497;52.494;7.546;2023-04-19T08:17:15;102247.03;;;23.60;22.24
40788;BME280;26497;52.494;7.546;2023-04-19T08:19:45;102243.00;;;24.32;21.32
40788;BME280;26497;52.494;7.546;2023-04-19T08:22:14;102251.25;;;24.80;20.67
40788;BME280;26497;52.494;7.546;2023-04-19T08:24:41;102239.31;;;24.60;19.95
40788;BME280;26497;52.494;7.546;2023-04-19T08:27:09;102249.28;;;24.58;21.19
40788;BME280;26497;52.494;7.546;2023-04-19T08:29:36;102233.56;;;24.98;20.82
40788;BME280;26497;52.494;7.546;2023-04-19T08:32:04;102232.44;;;25.03;20.67
40788;BME280;26497;52.494;7.546;2023-04-19T08:34:34;102232.59;;;25.72;19.78
40788;BME280;26497;52.494;7.546;2023-04-19T08:37:01;102225.16;;;26.23;18.63
40788;BME280;26497;52.494;7.546;2023-04-19T08:39:29;102230.16;;;26.53;18.53
40788;BME280;26497;52.494;7.546;2023-04-19T08:41:56;102225.63;;;26.33;18.43
40788;BME280;26497;52.494;7.546;2023-04-19T08:44:24;102231.81;;;25.90;17.98
40788;BME280;26497;52.494;7.546;2023-04-19T08:46:52;102227.47;;;25.64;18.94
40788;BME280;26497;52.494;7.546;2023-04-19T08:49:20;102227.88;;;25.29;18.42
40788;BME280;26497;52.494;7.546;2023-04-19T08:51:49;102222.97;;;24.92;18.94
40788;BME280;26497;52.494;7.546;2023-04-19T08:54:17;102222.00;;;25.18;18.69
40788;BME280;26497;52.494;7.546;2023-04-19T08:56:45;102227.53;;;25.39;19.15
40788;BME280;26497;52.494;7.546;2023-04-19T08:59:12;102221.22;;;25.38;18.27
40788;BME280;26497;52.494;7.546;2023-04-19T09:01:39;102213.97;;;25.86;18.92
40788;BME280;26497;52.494;7.546;2023-04-19T09:04:07;102209.84;;;26.00;18.00
40788;BME280;26497;52.494;7.546;2023-04-19T09:06:37;102220.63;;;26.00;19.00
40788;BME280;26497;52.494;7.546;2023-04-19T09:09:16;102198.16;;;26.22;17.86
40788;BME280;26497;52.494;7.546;2023-04-19T09:11:43;102200.69;;;26.47;18.26
40788;BME280;26497;52.494;7.546;2023-04-19T09:14:13;102189.00;;;26.88;17.68
40788;BME280;26497;52.494;7.546;2023-04-19T09:16:41;102185.28;;;27.49;17.06
40788;BME280;26497;52.494;7.546;2023-04-19T09:19:08;102176.75;;;27.38;16.61
40788;BME280;26497;52.494;7.546;2023-04-19T09:21:37;102185.50;;;26.86;17.16
40788;BME280;26497;52.494;7.546;2023-04-19T09:24:06;102194.72;;;26.59;17.48
40788;BME280;26497;52.494;7.546;2023-04-19T09:26:35;102185.72;;;25.73;18.41
40788;BME280;26497;52.494;7.546;2023-04-19T09:29:04;102187.78;;;25.66;18.34
40788;BME280;26497;52.494;7.546;2023-04-19T09:31:33;102179.63;;;25.68;18.81
40788;BME280;26497;52.494;7.546;2023-04-19T09:34:12;102177.22;;;25.36;18.79
40788;BME280;26497;52.494;7.546;2023-04-19T09:36:40;102176.81;;;24.99;18.61
40788;BME280;26497;52.494;7.546;2023-04-19T09:39:07;102170.59;;;24.97;18.34
40788;BME280;26497;52.494;7.546;2023-04-19T09:41:50;102158.97;;;24.95;18.77
40788;BME280;26497;52.494;7.546;2023-04-19T09:44:19;102161.28;;;25.06;19.50
40788;BME280;26497;52.494;7.546;2023-04-19T09:46:46;102157.25;;;25.40;18.48
40788;BME280;26497;52.494;7.546;2023-04-19T09:49:18;102155.09;;;25.95;18.17
40788;BME280;26497;52.494;7.546;2023-04-19T09:51:46;102146.09;;;26.16;16.34
40788;BME280;26497;52.494;7.546;2023-04-19T09:54:15;102149.97;;;25.66;16.73
40788;BME280;26497;52.494;7.546;2023-04-19T09:56:44;102137.06;;;25.95;15.84
40788;BME280;26497;52.494;7.546;2023-04-19T09:59:12;102141.28;;;26.02;16.60
40788;BME280;26497;52.494;7.546;2023-04-19T10:01:42;102137.16;;;25.71;18.02
40788;BME280;26497;52.494;7.546;2023-04-19T10:04:10;102131.44;;;25.79;16.80
40788;BME280;26497;52.494;7.546;2023-04-19T10:06:39;102125.97;;;25.58;17.04
40788;BME280;26497;52.494;7.546;2023-04-19T10:09:07;102122.97;;;25.20;17.31
40788;BME280;26497;52.494;7.546;2023-04-19T10:11:36;102124.72;;;25.43;16.89
40788;BME280;26497;52.494;7.546;2023-04-19T10:14:08;102120.56;;;25.12;16.44
40788;BME280;26497;52.494;7.546;2023-04-19T10:16:36;102125.91;;;25.14;18.00
40788;BME280;26497;52.494;7.546;2023-04-19T10:19:06;102114.75;;;25.47;17.71
40788;BME280;26497;52.494;7.546;2023-04-19T10:21:35;102117.69;;;25.63;17.47
40788;BME280;26497;52.494;7.546;2023-04-19T10:24:04;102121.28;;;25.40;16.58
40788;BME280;26497;52.494;7.546;2023-04-19T10:27:06;102097.25;;;25.10;16.32
40788;BME280;26497;52.494;7.546;2023-04-19T10:29:57;102085.97;;;25.46;17.32
40788;BME280;26497;52.494;7.546;2023-04-19T10:32:28;102087.06;;;25.85;17.79
40788;BME280;26497;52.494;7.546;2023-04-19T10:35:01;102078.25;;;26.43;16.93
40788;BME280;26497;52.494;7.546;2023-04-19T10:37:30;102087.72;;;26.33;16.32
40788;BME280;26497;52.494;7.546;2023-04-19T10:39:58;102081.16;;;26.39;16.76
40788;BME280;26497;52.494;7.546;2023-04-19T10:45:34;102092.25;;;26.72;16.95
40788;BME280;26497;52.494;7.546;2023-04-19T10:48:02;102069.69;;;26.92;16.14
40788;BME280;26497;52.494;7.546;2023-04-19T10:53:44;102070.78;;;25.86;17.35
40788;BME280;26497;52.494;7.546;2023-04-19T10:56:12;102073.09;;;25.75;17.83
40788;BME280;26497;52.494;7.546;2023-04-19T10:59:16;102072.94;;;26.21;17.94
40788;BME280;26497;52.494;7.546;2023-04-19T11:01:53;102059.53;;;26.39;17.19
40788;BME280;26497;52.494;7.546;2023-04-19T11:04:24;102052.97;;;26.24;16.61
40788;BME280;26497;52.494;7.546;2023-04-19T11:07:11;102049.97;;;26.09;17.69
40788;BME280;26497;52.494;7.546;2023-04-19T11:09:39;102052.03;;;26.25;18.06
40788;BME280;26497;52.494;7.546;2023-04-19T11:12:12;102047.13;;;26.12;18.01
40788;BME280;26497;52.494;7.546;2023-04-19T11:14:41;102047.97;;;26.35;17.90
40788;BME280;26497;52.494;7.546;2023-04-19T11:17:17;102043.38;;;25.75;18.30
40788;BME280;26497;52.494;7.546;2023-04-19T11:19:53;102037.81;;;25.57;19.13
40788;BME280;26497;52.494;7.546;2023-04-19T11:22:25;102035.44;;;25.70;18.91
40788;BME280;26497;52.494;7.546;2023-04-19T11:24:52;102029.00;;;25.52;19.47
40788;BME280;26497;52.494;7.546;2023-04-19T11:27:20;102030.78;;;25.95;18.47
40788;BME280;26497;52.494;7.546;2023-04-19T11:29:47;102020.09;;;26.14;18.38
40788;BME280;26497;52.494;7.546;2023-04-19T11:32:17;102018.50;;;25.67;17.62
40788;BME280;26497;52.494;7.546;2023-04-19T11:34:46;102013.94;;;25.24;19.26
40788;BME280;26497;52.494;7.546;2023-04-19T11:37:13;102002.78;;;25.32;19.49
40788;BME280;26497;52.494;7.546;2023-04-19T11:39:46;102003.59;;;25.13;18.71
40788;BME280;26497;52.494;7.546;2023-04-19T11:42:18;101991.50;;;25.22;17.68
40788;BME280;26497;52.494;7.546;2023-04-19T11:44:49;101994.81;;;25.29;18.39
40788;BME280;26497;52.494;7.546;2023-04-19T11:47:18;101992.50;;;25.85;18.57
40788;BME280;26497;52.494;7.546;2023-04-19T11:49:45;101985.19;;;26.28;17.47
40788;BME280;26497;52.494;7.546;2023-04-19T11:52:20;101985.00;;;26.71;16.99
40788;BME280;26497;52.494;7.546;2023-04-19T11:54:48;101976.97;;;26.89;16.73
40788;BME280;26497;52.494;7.546;2023-04-19T11:57:14;101981.81;;;26.23;17.04
40788;BME280;26497;52.494;7.546;2023-04-19T12:00:06;101977.09;;;25.66;17.29
40788;BME280;26497;52.494;7.546;2023-04-19T12:02:38;101979.13;;;25.39;17.57
40788;BME280;26497;52.494;7.546;2023-04-19T12:05:09;101981.50;;;25.69;16.35
40788;BME280;26497;52.494;7.546;2023-04-19T12:07:37;101971.28;;;25.75;16.94
40788;BME280;26497;52.494;7.546;2023-04-19T12:10:22;101964.13;;;25.95;17.63
40788;BME280;26497;52.494;7.546;2023-04-19T12:12:50;101964.72;;;26.23;17.23
40788;BME280;26497;52.494;7.546;2023-04-19T12:15:17;101971.22;;;26.18;18.51
40788;BME280;26497;52.494;7.546;2023-04-19T12:18:01;101966.81;;;25.95;17.22
40788;BME280;26497;52.494;7.546;2023-04-19T12:20:30;101969.38;;;25.98;16.91
40788;BME280;26497;52.494;7.546;2023-04-19T12:22:58;101949.84;;;25.91;16.77
40788;BME280;26497;52.494;7.546;2023-04-19T12:25:28;101954.03;;;25.99;17.51
40788;BME280;26497;52.494;7.546;2023-04-19T12:27:55;101953.97;;;26.00;18.02
40788;BME280;26497;52.494;7.546;2023-04-19T12:30:22;101948.53;;;26.42;18.49
40788;BME280;26497;52.494;7.546;2023-04-19T12:32:49;101946.25;;;26.52;18.06
40788;BME280;26497;52.494;7.546;2023-04-19T12:35:21;101965.09;;;26.91;18.01
40788;BME280;26497;52.494;7.546;2023-04-19T12:37:48;101952.16;;;27.52;17.30
40788;BME280;26497;52.494;7.546;2023-04-19T12:40:15;101954.22;;;27.83;17.81
40788;BME280;26497;52.494;7.546;2023-04-19T12:42:42;101957.16;;;27.78;16.80
40788;BME280;26497;52.494;7.546;2023-04-19T12:45:11;101943.81;;;27.03;17.57
40788;BME280;26497;52.494;7.546;2023-04-19T12:47:38;101941.97;;;27.21;18.16
40788;BME280;26497;52.494;7.546;2023-04-19T12:50:07;101934.00;;;27.18;16.99
40788;BME280;26497;52.494;7.546;2023-04-19T12:52:36;101933.16;;;26.61;18.38
40788;BME280;26497;52.494;7.546;2023-04-19T12:55:04;101928.66;;;26.43;18.71
40788;BME280;26497;52.494;7.546;2023-04-19T12:57:31;101922.25;;;27.01;17.41
40788;BME280;26497;52.494;7.546;2023-04-19T12:59:58;101916.84;;;27.72;17.83
40788;BME280;26497;52.494;7.546;2023-04-19T13:02:25;101900.31;;;28.28;16.19